Time;durP1;ratioP1;P1;durP2;ratioP2;P2;SDS_P1;SDS_P2;PMS_P1;PMS_P2;Temp;Humidity;BMP_temperature;BMP_pressure;BME280_temperature;BME280_humidity;BME280_pressure;Samples;Min_cycle;Max_cycle;Signal;HPM_P1;HPM_P2
2023/09/17 00:30:08;;;;;;;14.77;13.48;;;18.90;99.90;;;;;;4616700;31;20035;-91
2023/09/17 03:10:18;;;;;;;15.63;13.98;;;18.30;99.90;;;;;;6274604;22;20475;-89
2023/09/17 04:19:36;;;;;;;20.60;17.88;;;17.60;99.90;;;;;;5872606;24;20061;-89
2023/09/17 05:35:19;;;;;;;17.80;16.00;;;16.90;99.90;;;;;;6294336;22;20112;-93
2023/09/17 05:38:03;;;;;;;16.90;15.15;;;17.30;99.90;;;;;;6308936;22;20432;-90
2023/09/17 05:41:16;;;;;;;;;;;;;;;;;;;;;
2023/09/17 06:01:22;;;;;;;16.98;15.43;;;17.00;99.90;;;;;;6308944;22;20026;-91
2023/09/17 06:04:12;;;;;;;17.45;15.65;;;16.90;99.90;;;;;;6307971;22;20096;-89
2023/09/17 06:07:06;;;;;;;18.55;16.73;;;16.90;99.90;;;;;;6307548;22;20350;-89
2023/09/17 06:13:44;;;;;;;19.40;17.40;;;16.70;99.90;;;;;;6294348;22;20019;-90
2023/09/17 06:16:43;;;;;;;20.50;17.23;;;16.70;99.90;;;;;;6221298;22;20033;-90
2023/09/17 06:19:20;;;;;;;19.85;16.77;;;16.10;99.90;;;;;;6316349;22;20057;-89
2023/09/17 06:22:07;;;;;;;19.00;17.13;;;17.50;99.90;;;;;;6324105;22;20014;-91
2023/09/17 06:25:29;;;;;;;18.77;16.77;;;15.70;99.90;;;;;;6306814;22;20076;-91
2023/09/17 06:55:48;;;;;;;22.45;19.05;;;16.50;99.90;;;;;;6311785;22;20026;-90
2023/09/17 06:58:43;;;;;;;22.08;19.75;;;16.50;99.90;;;;;;6241210;22;20082;-91
2023/09/17 07:01:43;;;;;;;;;;;;;;;;;;;;;
2023/09/17 07:04:49;;;;;;;23.30;21.00;;;16.40;99.90;;;;;;6275379;22;20428;-91
2023/09/17 07:07:56;;;;;;;;;;;;;;;;;;;;;
2023/09/17 07:14:14;;;;;;;;;;;;;;;;;;;;;
2023/09/17 07:26:55;;;;;;;25.08;21.33;;;16.30;99.90;;;;;;6276916;22;20022;-90
2023/09/17 07:29:21;;;;;;;25.98;20.75;;;17.40;99.90;;;;;;6245707;22;20068;-91
2023/09/17 07:32:05;;;;;;;23.35;20.90;;;17.30;99.90;;;;;;6277443;22;19996;-91
2023/09/17 07:34:31;;;;;;;23.17;20.27;;;16.40;99.90;;;;;;6274329;22;20332;-85
2023/09/17 07:40:11;;;;;;;24.17;21.52;;;16.50;99.90;;;;;;6276700;22;20096;-90
2023/09/17 07:42:55;;;;;;;23.13;20.73;;;16.50;99.90;;;;;;6274705;22;20007;-88
2023/09/17 07:45:21;;;;;;;22.83;20.45;;;16.50;99.90;;;;;;6274525;22;20003;-90
2023/09/17 07:47:47;;;;;;;23.70;21.13;;;17.00;99.90;;;;;;6276179;22;20018;-89
2023/09/17 07:50:12;;;;;;;21.92;19.83;;;16.80;99.90;;;;;;6275253;22;20019;-89
2023/09/17 08:01:46;;;;;;;23.52;21.13;;;16.50;99.90;;;;;;6281582;22;20023;-90
2023/09/17 08:17:51;;;;;;;22.92;20.60;;;16.60;99.90;;;;;;6310403;22;20030;-86
2023/09/17 08:20:16;;;;;;;22.33;20.15;;;16.20;99.90;;;;;;6304236;22;19996;-85
2023/09/17 08:22:51;;;;;;;22.00;19.80;;;16.70;99.90;;;;;;6303728;22;20006;-86
2023/09/17 08:25:17;;;;;;;25.63;21.60;;;16.60;99.90;;;;;;6305184;22;20014;-85
2023/09/17 08:27:43;;;;;;;22.25;19.92;;;16.60;99.90;;;;;;6305550;22;20078;-84
2023/09/17 08:30:32;;;;;;;23.88;21.38;;;16.70;99.90;;;;;;6305281;22;20038;-88
2023/09/17 08:33:09;;;;;;;21.42;19.23;;;16.30;99.90;;;;;;6304234;22;20000;-86
2023/09/17 08:35:36;;;;;;;21.98;19.65;;;16.70;99.90;;;;;;6305575;22;20061;-87
2023/09/17 08:38:19;;;;;;;21.92;19.80;;;16.80;99.90;;;;;;6294339;22;20003;-91
2023/09/17 08:40:49;;;;;;;21.00;18.83;;;17.70;99.90;;;;;;6306812;22;20011;-91
2023/09/17 08:43:15;;;;;;;21.60;19.35;;;17.10;99.90;;;;;;6308867;22;19995;-91
2023/09/17 08:45:56;;;;;;;20.33;18.05;;;16.80;99.90;;;;;;6307478;22;20046;-92
2023/09/17 08:48:23;;;;;;;18.80;17.05;;;17.00;99.90;;;;;;6308511;22;20003;-93
2023/09/17 08:51:00;;;;;;;17.25;15.45;;;16.90;99.90;;;;;;6228536;22;20479;-92
2023/09/17 08:54:17;;;;;;;19.98;17.63;;;17.00;99.90;;;;;;6309369;22;20003;-93
2023/09/17 08:57:04;;;;;;;18.70;16.88;;;16.40;99.90;;;;;;6180629;23;20009;-88
2023/09/17 09:04:40;;;;;;;20.63;18.50;;;17.10;99.90;;;;;;6330395;22;20086;-90
2023/09/17 09:07:06;;;;;;;19.85;17.90;;;18.10;99.90;;;;;;6330700;22;20021;-87
2023/09/17 09:09:44;;;;;;;20.88;18.77;;;18.20;99.90;;;;;;6316815;22;20003;-89
2023/09/17 09:25:10;;;;;;;17.02;15.32;;;17.20;99.90;;;;;;6305039;22;20026;-87
2023/09/17 10:47:57;;;;;;;33.00;24.40;;;17.60;99.90;;;;;;6161922;23;20006;-89
2023/09/17 10:50:31;;;;;;;28.48;22.75;;;17.70;99.90;;;;;;6131943;23;20001;-89
2023/09/17 10:57:26;;;;;;;33.45;24.55;;;17.70;99.90;;;;;;6064546;23;20025;-90
2023/09/17 11:05:17;;;;;;;40.78;25.85;;;17.90;99.90;;;;;;6313983;22;20334;-85
2023/09/17 11:28:18;;;;;;;38.88;27.48;;;18.10;99.90;;;;;;6215503;22;20067;-87
2023/09/17 11:31:03;;;;;;;41.05;27.20;;;18.20;99.90;;;;;;6220386;23;20339;-91
2023/09/17 11:33:59;;;;;;;38.38;27.60;;;18.40;99.90;;;;;;6226691;23;20018;-93
2023/09/17 11:36:50;;;;;;;45.83;27.25;;;18.20;99.90;;;;;;6225926;23;20042;-89
2023/09/17 11:42:26;;;;;;;;;;;18.30;99.90;;;;;;6309462;22;20030;-89
2023/09/17 11:45:11;;;;;;;42.40;27.15;;;18.30;99.90;;;;;;6311523;22;19899;-91
2023/09/17 11:47:37;;;;;;;47.03;28.45;;;18.70;99.90;;;;;;6324265;22;19996;-91
2023/09/17 11:50:19;;;;;;;42.75;28.13;;;18.40;99.90;;;;;;6333989;22;20011;-91
2023/09/17 11:53:07;;;;;;;44.80;28.83;;;18.40;99.90;;;;;;6308525;22;20006;-89
2023/09/17 11:55:58;;;;;;;43.05;28.33;;;17.90;99.90;;;;;;6307125;22;20014;-88
2023/09/17 12:01:59;;;;;;;41.28;29.67;;;18.30;99.90;;;;;;6314774;22;20042;-89
2023/09/17 12:04:53;;;;;;;;;;;;;;;;;;;;;
2023/09/17 12:07:20;;;;;;;39.60;27.58;;;17.90;99.90;;;;;;6254653;22;20070;-90
2023/09/17 12:12:37;;;;;;;43.28;28.58;;;18.90;99.90;;;;;;6314225;22;19998;-90
2023/09/17 12:15:19;;;;;;;46.72;28.60;;;18.70;99.90;;;;;;6326425;22;20015;-88
2023/09/17 12:18:00;;;;;;;41.65;28.35;;;18.70;99.90;;;;;;6290829;22;20049;-90
2023/09/17 12:30:29;;;;;;;45.03;26.60;;;18.40;99.90;;;;;;6305669;22;20034;-88
2023/09/17 12:32:59;;;;;;;48.40;29.52;;;18.50;99.90;;;;;;6306584;22;20022;-88
2023/09/17 12:35:30;;;;;;;48.13;29.55;;;19.30;99.90;;;;;;6318759;22;20022;-90
2023/09/17 12:38:15;;;;;;;42.15;28.48;;;19.90;99.90;;;;;;6311172;22;20034;-89
2023/09/17 12:40:52;;;;;;;48.60;30.08;;;18.90;99.90;;;;;;6305795;22;19999;-89
2023/09/17 12:43:26;;;;;;;43.00;29.75;;;18.90;99.90;;;;;;6305533;22;20058;-89
2023/09/17 12:46:10;;;;;;;43.22;28.85;;;19.00;99.90;;;;;;6305588;22;20003;-91
2023/09/17 12:48:49;;;;;;;48.38;31.13;;;18.90;99.90;;;;;;6304964;22;20522;-90
2023/09/17 12:51:27;;;;;;;51.03;31.02;;;19.00;99.90;;;;;;6304517;22;19999;-88
2023/09/17 12:54:11;;;;;;;49.15;30.80;;;19.00;99.90;;;;;;6305035;22;20439;-89
2023/09/17 12:56:52;;;;;;;52.05;30.70;;;19.00;99.90;;;;;;6306182;22;20011;-89
2023/09/17 12:59:40;;;;;;;52.38;30.05;;;19.10;99.90;;;;;;6308378;22;20003;-88
2023/09/17 13:02:08;;;;;;;51.47;30.33;;;19.00;99.90;;;;;;6304682;22;20034;-88
2023/09/17 13:04:52;;;;;;;47.47;29.13;;;19.10;99.90;;;;;;6304152;22;19995;-88
2023/09/17 13:07:21;;;;;;;47.33;28.48;;;19.10;99.90;;;;;;6305971;22;20038;-89
2023/09/17 13:10:02;;;;;;;53.25;28.95;;;19.10;99.90;;;;;;6305844;22;20328;-87
2023/09/17 13:12:28;;;;;;;44.05;27.13;;;19.10;99.90;;;;;;6307675;22;20003;-89
2023/09/17 13:15:06;;;;;;;42.67;27.60;;;19.90;99.90;;;;;;6326020;22;20003;-88
2023/09/17 13:17:32;;;;;;;45.90;28.63;;;19.20;99.90;;;;;;6329160;22;19996;-90
2023/09/17 13:20:04;;;;;;;43.83;26.85;;;19.20;99.90;;;;;;6311288;22;20080;-90
2023/09/17 13:22:32;;;;;;;40.88;26.83;;;19.30;99.90;;;;;;6308119;22;19999;-89
2023/09/17 13:25:13;;;;;;;43.97;26.73;;;19.20;99.90;;;;;;6307079;22;20003;-90
2023/09/17 13:27:39;;;;;;;41.63;26.65;;;19.20;99.90;;;;;;6307961;22;20347;-89
2023/09/17 13:30:08;;;;;;;44.42;25.23;;;19.30;99.90;;;;;;6312299;22;20043;-89
2023/09/17 13:32:48;;;;;;;46.83;27.40;;;19.00;99.90;;;;;;6311575;22;20000;-89
2023/09/17 13:35:28;;;;;;;44.35;25.75;;;19.40;99.90;;;;;;6318294;22;20030;-89
2023/09/17 13:37:53;;;;;;;39.92;24.52;;;19.00;99.90;;;;;;6309505;22;20007;-87
2023/09/17 13:43:23;;;;;;;45.30;27.23;;;19.10;99.90;;;;;;6313292;22;20121;-93
2023/09/17 13:46:13;;;;;;;38.60;23.25;;;20.00;99.90;;;;;;6306079;22;20003;-88
2023/09/17 13:48:51;;;;;;;45.50;25.80;;;18.30;99.90;;;;;;6307850;22;20030;-88
2023/09/17 13:51:36;;;;;;;42.10;26.17;;;19.00;99.90;;;;;;6307997;22;19996;-88
2023/09/17 13:54:11;;;;;;;45.92;25.50;;;19.30;99.90;;;;;;6307783;22;19999;-88
2023/09/17 13:56:52;;;;;;;41.00;25.52;;;19.00;99.90;;;;;;6307817;22;20027;-88
2023/09/17 13:59:36;;;;;;;43.67;26.88;;;19.00;99.90;;;;;;6306673;22;19999;-88
2023/09/17 14:02:05;;;;;;;46.92;28.20;;;19.00;99.90;;;;;;6304371;22;20086;-87
2023/09/17 14:04:49;;;;;;;46.00;27.67;;;19.00;99.90;;;;;;6302445;22;20011;-88
2023/09/17 14:07:21;;;;;;;53.35;29.77;;;18.90;99.90;;;;;;6301553;22;19999;-88
2023/09/17 14:09:58;;;;;;;45.00;28.98;;;18.20;99.90;;;;;;6301816;22;20002;-87
2023/09/17 14:12:36;;;;;;;55.85;31.15;;;19.90;99.90;;;;;;6304279;22;20004;-88
2023/09/17 14:15:14;;;;;;;51.58;28.80;;;18.90;99.90;;;;;;6305470;22;20004;-88
2023/09/17 14:17:55;;;;;;;50.47;28.75;;;18.90;99.90;;;;;;6306631;22;20045;-88
2023/09/17 14:20:36;;;;;;;51.95;30.05;;;18.90;99.90;;;;;;6327567;22;19999;-88
2023/09/17 14:23:14;;;;;;;52.25;30.13;;;18.90;99.90;;;;;;6317313;22;20077;-88
2023/09/17 14:25:39;;;;;;;51.90;28.42;;;18.90;99.90;;;;;;6313627;22;20089;-88
2023/09/17 14:28:14;;;;;;;50.40;29.77;;;19.00;99.90;;;;;;6307507;22;20011;-88
2023/09/17 14:30:58;;;;;;;48.67;27.80;;;18.20;99.90;;;;;;6308052;22;20289;-88
2023/09/17 14:33:40;;;;;;;51.45;29.90;;;19.00;99.90;;;;;;6307901;22;20427;-88
2023/09/17 14:36:20;;;;;;;44.50;27.88;;;20.00;99.90;;;;;;6307830;22;20011;-88
2023/09/17 14:39:00;;;;;;;54.13;29.73;;;19.40;99.90;;;;;;6308051;22;19999;-87
2023/09/17 14:41:45;;;;;;;53.15;30.40;;;19.10;99.90;;;;;;6309012;22;20042;-88
2023/09/17 14:44:23;;;;;;;47.20;28.77;;;19.50;99.90;;;;;;6307247;22;20167;-88
2023/09/17 14:46:58;;;;;;;51.65;30.33;;;19.10;99.90;;;;;;6307468;22;20003;-87
2023/09/17 14:53:02;;;;;;;50.03;29.40;;;19.20;99.90;;;;;;6307634;22;20022;-88
2023/09/17 14:55:39;;;;;;;46.80;28.95;;;19.10;99.90;;;;;;6182253;23;20342;-88
2023/09/17 14:58:05;;;;;;;45.80;28.77;;;19.30;99.90;;;;;;6305755;22;20003;-88
2023/09/17 15:00:46;;;;;;;50.85;30.17;;;20.30;99.90;;;;;;6307941;22;20007;-88
2023/09/17 15:03:28;;;;;;;53.78;31.08;;;19.30;99.90;;;;;;6307244;22;20018;-88
2023/09/17 15:06:03;;;;;;;48.30;28.75;;;19.10;99.90;;;;;;6307838;22;20521;-87
2023/09/17 15:08:49;;;;;;;54.08;32.45;;;19.30;99.90;;;;;;6305856;22;20083;-87
2023/09/17 15:11:33;;;;;;;50.55;30.35;;;19.40;99.90;;;;;;6308784;22;20057;-89
2023/09/17 15:13:59;;;;;;;49.83;31.15;;;19.30;99.90;;;;;;6307891;22;20007;-90
2023/09/17 15:16:25;;;;;;;51.92;32.70;;;19.40;99.90;;;;;;6306043;22;20035;-87
2023/09/17 15:19:15;;;;;;;50.33;30.30;;;19.40;99.90;;;;;;6311031;22;20328;-89
2023/09/17 15:24:53;;;;;;;52.00;31.60;;;19.40;99.90;;;;;;6267883;22;19899;-88
2023/09/17 15:27:21;;;;;;;61.45;36.88;;;19.40;99.90;;;;;;6307757;22;20003;-88
2023/09/17 15:30:05;;;;;;;60.25;35.65;;;19.40;99.90;;;;;;6304021;22;20336;-86
2023/09/17 15:32:40;;;;;;;56.35;32.92;;;19.40;99.90;;;;;;6302437;22;20009;-87
2023/09/17 15:35:25;;;;;;;58.58;35.97;;;19.50;99.90;;;;;;6303318;22;20070;-89
2023/09/17 15:38:07;;;;;;;52.13;33.63;;;19.50;99.90;;;;;;6303056;22;20037;-88
2023/09/17 15:40:55;;;;;;;59.72;36.08;;;19.60;99.90;;;;;;6303495;22;20003;-87
2023/09/17 15:46:39;;;;;;;65.57;38.35;;;19.60;99.90;;;;;;6300615;22;20092;-85
2023/09/17 15:49:13;;;;;;;66.25;40.80;;;19.70;99.90;;;;;;6252238;22;20365;-87
2023/09/17 15:51:52;;;;;;;66.10;40.75;;;19.70;99.90;;;;;;6306439;22;20015;-88
2023/09/17 15:54:48;;;;;;;64.78;40.35;;;19.70;99.90;;;;;;6306322;22;20007;-88
2023/09/17 15:57:26;;;;;;;71.47;40.70;;;19.90;99.90;;;;;;6306367;22;20003;-84
2023/09/17 16:00:10;;;;;;;64.35;38.90;;;19.70;99.90;;;;;;6305778;22;20003;-85
2023/09/17 16:12:20;;;;;;;62.33;39.38;;;19.90;99.90;;;;;;6306035;22;20042;-83
2023/09/17 16:15:28;;;;;;;54.77;36.83;;;19.80;99.90;;;;;;6306386;22;20015;-89
2023/09/17 16:18:40;;;;;;;67.38;40.08;;;19.90;99.90;;;;;;6307054;22;20053;-86
2023/09/17 16:43:22;;;;;;;60.83;38.05;;;19.70;99.90;;;;;;6304480;22;20026;-88
2023/09/17 16:46:14;;;;;;;60.90;37.85;;;20.10;99.90;;;;;;6305850;22;20003;-86
2023/09/17 16:49:02;;;;;;;58.80;37.97;;;20.20;99.90;;;;;;6304782;22;20098;-85
2023/09/17 17:00:14;;;;;;;61.50;40.38;;;20.20;99.90;;;;;;6305254;22;20009;-85
2023/09/17 17:08:09;;;;;;;64.20;40.25;;;18.60;99.90;;;;;;6268170;22;20109;-86
2023/09/17 17:11:32;;;;;;;66.40;41.75;;;20.20;99.90;;;;;;6303648;22;20007;-85
2023/09/17 17:14:19;;;;;;;67.57;41.15;;;19.90;99.90;;;;;;6302068;22;20408;-86
2023/09/17 17:16:59;;;;;;;62.25;38.78;;;20.10;99.90;;;;;;6305153;22;20344;-86
2023/09/17 17:30:45;;;;;;;67.88;40.67;;;20.10;99.90;;;;;;6322832;22;20007;-89
2023/09/17 17:33:26;;;;;;;57.58;37.70;;;20.00;99.90;;;;;;6316494;22;20011;-88
2023/09/17 17:35:58;;;;;;;57.63;37.72;;;19.70;99.90;;;;;;6308636;22;20011;-88
2023/09/17 17:38:24;;;;;;;63.33;39.40;;;20.00;99.90;;;;;;6307625;22;20007;-85
2023/09/17 17:41:04;;;;;;;64.32;41.47;;;20.90;99.90;;;;;;6306390;22;20003;-84
2023/09/17 17:43:31;;;;;;;62.83;38.83;;;20.00;99.90;;;;;;6307020;22;19999;-86
2023/09/17 17:45:57;;;;;;;68.75;41.70;;;20.30;99.90;;;;;;6306769;22;20003;-87
2023/09/17 17:48:22;;;;;;;62.47;38.20;;;19.90;99.90;;;;;;6305386;22;20057;-85
2023/09/17 17:53:35;;;;;;;59.53;38.47;;;20.70;99.90;;;;;;6304219;22;20014;-84
2023/09/17 17:56:20;;;;;;;61.40;38.95;;;19.80;99.90;;;;;;6305308;22;20008;-85
2023/09/17 17:58:46;;;;;;;65.00;41.08;;;19.80;99.90;;;;;;6304529;22;20003;-85
2023/09/17 18:01:12;;;;;;;61.75;41.13;;;19.70;99.90;;;;;;6304921;22;20316;-86
2023/09/17 18:04:00;;;;;;;61.33;39.95;;;19.70;99.90;;;;;;6307299;22;19999;-86
2023/09/17 18:06:26;;;;;;;57.53;38.53;;;19.70;99.90;;;;;;6161992;22;20005;-85
2023/09/17 18:08:51;;;;;;;64.72;39.95;;;19.70;99.90;;;;;;6307037;22;20014;-86
2023/09/17 18:11:36;;;;;;;62.22;41.33;;;19.60;99.90;;;;;;6306886;22;20086;-86
2023/09/17 18:14:01;;;;;;;60.08;39.13;;;18.90;99.90;;;;;;6305447;22;20014;-86
2023/09/17 18:16:36;;;;;;;66.00;39.80;;;19.60;99.90;;;;;;6306331;22;20019;-85
2023/09/17 18:19:02;;;;;;;66.43;41.63;;;19.60;99.90;;;;;;6306055;22;20008;-87
2023/09/17 18:25:10;;;;;;;60.33;38.90;;;19.60;99.90;;;;;;6260136;22;20029;-86
2023/09/17 18:27:50;;;;;;;63.72;40.83;;;19.30;99.90;;;;;;6247721;22;20018;-89
2023/09/17 18:30:21;;;;;;;59.95;39.40;;;18.70;99.90;;;;;;6302064;22;20023;-88
2023/09/17 18:33:59;;;;;;;62.38;38.67;;;19.40;99.90;;;;;;6314375;22;19999;-89
2023/09/17 18:37:15;;;;;;;62.72;39.83;;;19.30;99.90;;;;;;6315637;22;20015;-89
2023/09/17 18:40:32;;;;;;;59.83;40.10;;;19.30;99.90;;;;;;6307970;22;20017;-89
2023/09/17 18:44:07;;;;;;;64.93;39.88;;;19.20;99.90;;;;;;6308207;22;19999;-89
2023/09/17 18:47:23;;;;;;;70.75;38.47;;;19.20;99.90;;;;;;6307843;22;20031;-89
2023/09/17 18:49:54;;;;;;;61.03;38.97;;;19.20;99.90;;;;;;6300748;22;20027;-88
2023/09/17 18:52:27;;;;;;;61.40;39.03;;;19.10;99.90;;;;;;6307899;22;20050;-88
2023/09/17 18:55:08;;;;;;;60.72;39.13;;;19.80;99.90;;;;;;6306446;22;20011;-85
2023/09/17 18:57:44;;;;;;;60.92;39.15;;;19.10;99.90;;;;;;6306304;22;20009;-86
2023/09/17 19:00:37;;;;;;;63.13;39.95;;;19.10;99.90;;;;;;6307202;22;20003;-86
2023/09/17 19:03:27;;;;;;;62.45;38.35;;;19.00;99.90;;;;;;6305985;22;20019;-86
2023/09/17 19:06:05;;;;;;;61.13;40.28;;;19.00;99.90;;;;;;6311055;22;20098;-90
2023/09/17 19:08:33;;;;;;;58.08;38.78;;;19.00;99.90;;;;;;6313322;22;19999;-90
2023/09/17 19:11:05;;;;;;;58.35;37.90;;;19.00;99.90;;;;;;6319739;22;20010;-90
2023/09/17 19:13:31;;;;;;;59.33;36.70;;;19.00;99.90;;;;;;6307296;22;20011;-89
2023/09/17 19:26:19;;;;;;;;;;;;;;;;;;;;;
2023/09/17 19:29:29;;;;;;;63.03;39.17;;;18.90;99.90;;;;;;5900216;24;20076;-87
2023/09/17 19:32:46;;;;;;;70.53;39.67;;;18.60;99.90;;;;;;5923568;24;20013;-87
2023/09/17 19:39:32;;;;;;;60.80;37.20;;;18.70;99.90;;;;;;5926805;24;20029;-87
2023/09/17 19:46:25;;;;;;;65.00;40.83;;;18.70;99.90;;;;;;5924852;24;20080;-92
2023/09/17 19:49:25;;;;;;;57.95;38.60;;;18.40;99.90;;;;;;5926652;24;20036;-93
2023/09/17 19:52:41;;;;;;;;;;;18.70;99.90;;;;;;6013977;23;20015;-92
2023/09/17 19:55:54;;;;;;;65.93;40.45;;;18.80;99.90;;;;;;6287529;22;19915;-91
2023/09/17 19:59:01;;;;;;;58.58;38.88;;;18.70;99.90;;;;;;6152927;23;20039;-90
2023/09/17 20:02:49;;;;;;;60.85;39.17;;;18.80;99.90;;;;;;6154576;23;20005;-90
2023/09/17 20:05:20;;;;;;;64.05;39.78;;;18.70;99.90;;;;;;6052092;23;20006;-91
2023/09/17 20:07:51;;;;;;;65.85;38.30;;;19.70;99.90;;;;;;6094148;23;20015;-92
2023/09/17 20:10:25;;;;;;;;;;;20.20;99.90;;;;;;6143801;23;20002;-91
2023/09/17 21:43:05;;;;;;;49.20;35.05;;;18.80;99.90;;;;;;6307692;22;20356;-91
2023/09/17 21:52:08;;;;;;;51.78;33.97;;;18.90;99.90;;;;;;6309323;22;20023;-90
2023/09/17 21:54:46;;;;;;;47.45;34.08;;;17.30;99.90;;;;;;6306647;22;20010;-89
2023/09/17 21:57:21;;;;;;;48.13;34.58;;;19.90;99.90;;;;;;6307470;22;20007;-89
2023/09/17 21:59:57;;;;;;;53.05;36.13;;;18.80;99.90;;;;;;6306429;22;20003;-89
2023/09/17 22:02:32;;;;;;;53.63;35.63;;;18.90;99.90;;;;;;6308055;22;20003;-89
2023/09/17 22:05:19;;;;;;;45.58;35.20;;;18.90;99.90;;;;;;6306382;22;20007;-89
2023/09/17 22:07:59;;;;;;;51.35;33.90;;;18.90;99.90;;;;;;6307996;22;20007;-88
2023/09/17 22:10:43;;;;;;;51.97;33.38;;;18.90;99.90;;;;;;6307384;22;20002;-89
2023/09/17 22:13:10;;;;;;;42.83;32.17;;;19.60;99.90;;;;;;6307272;22;20093;-89
2023/09/17 22:15:41;;;;;;;43.75;33.25;;;19.90;99.90;;;;;;6307287;22;20046;-88
2023/09/17 22:18:12;;;;;;;48.22;32.08;;;18.90;99.90;;;;;;6308361;22;20003;-89
2023/09/17 22:21:07;;;;;;;46.17;31.65;;;19.00;99.90;;;;;;6307547;22;20003;-88
2023/09/17 22:23:47;;;;;;;41.40;29.80;;;19.00;99.90;;;;;;6307352;22;20007;-89
2023/09/17 22:26:28;;;;;;;40.90;29.55;;;17.70;99.90;;;;;;6306870;22;20007;-89
2023/09/17 22:29:15;;;;;;;41.28;31.52;;;19.00;99.90;;;;;;6307384;22;20428;-88
2023/09/17 22:31:57;;;;;;;40.55;30.33;;;19.00;99.90;;;;;;6308096;22;20007;-89
2023/09/17 22:34:31;;;;;;;41.08;30.00;;;19.10;99.90;;;;;;6308982;22;20003;-88
2023/09/17 22:37:19;;;;;;;39.00;29.63;;;19.10;99.90;;;;;;6308595;22;20014;-89
2023/09/17 22:40:10;;;;;;;34.90;29.80;;;18.60;99.90;;;;;;6307823;22;20000;-89
2023/09/17 22:42:54;;;;;;;34.80;27.42;;;19.10;99.90;;;;;;6296402;22;20340;-88
2023/09/17 22:45:42;;;;;;;34.42;28.65;;;19.10;99.90;;;;;;6327332;22;20007;-88
2023/09/17 22:48:58;;;;;;;36.47;28.42;;;19.10;99.90;;;;;;6330874;22;20444;-88
2023/09/17 22:51:44;;;;;;;33.03;27.45;;;19.10;99.90;;;;;;6189480;23;20093;-89
2023/09/17 22:55:06;;;;;;;31.27;26.48;;;20.10;99.90;;;;;;6181983;23;20017;-89
2023/09/17 22:57:56;;;;;;;37.95;27.98;;;19.20;99.90;;;;;;6182432;23;20013;-88
2023/09/17 23:00:34;;;;;;;36.95;27.13;;;18.80;99.90;;;;;;6218185;22;20080;-89
2023/09/17 23:03:10;;;;;;;41.05;27.63;;;19.20;99.90;;;;;;6307417;22;20045;-89
2023/09/17 23:05:36;;;;;;;35.47;28.27;;;19.10;99.90;;;;;;6307154;22;20424;-89
2023/09/17 23:08:07;;;;;;;36.75;29.15;;;19.20;99.90;;;;;;6308441;22;20077;-88
2023/09/17 23:10:48;;;;;;;33.67;27.45;;;19.20;99.90;;;;;;6307546;22;20007;-89
2023/09/17 23:13:30;;;;;;;;;;;19.90;99.90;;;;;;6316966;22;20000;-89
2023/09/17 23:16:15;;;;;;;37.00;27.38;;;19.20;99.90;;;;;;6312970;22;19907;-88
2023/09/17 23:18:42;;;;;;;31.60;27.27;;;19.20;99.90;;;;;;6313766;22;20011;-89
2023/09/17 23:21:14;;;;;;;39.67;26.90;;;19.20;99.90;;;;;;6314733;22;20003;-88
2023/09/17 23:23:58;;;;;;;37.33;28.20;;;19.20;99.90;;;;;;6316451;22;20026;-89
2023/09/17 23:26:27;;;;;;;39.72;27.77;;;20.80;99.90;;;;;;6320816;22;19995;-88
2023/09/17 23:29:08;;;;;;;33.95;26.80;;;19.20;99.90;;;;;;6315846;22;20000;-88
2023/09/17 23:31:33;;;;;;;30.92;27.63;;;19.20;99.90;;;;;;6321080;22;20058;-88
2023/09/17 23:34:20;;;;;;;38.30;27.23;;;19.20;99.90;;;;;;6306682;22;20436;-88
2023/09/17 23:37:04;;;;;;;36.13;27.88;;;19.20;99.90;;;;;;6306858;22;20068;-89
2023/09/17 23:39:30;;;;;;;39.45;28.80;;;19.20;99.90;;;;;;6307937;22;20010;-88
2023/09/17 23:42:02;;;;;;;33.53;27.05;;;19.30;99.90;;;;;;6328258;22;20023;-88
2023/09/17 23:44:37;;;;;;;34.08;26.95;;;19.20;99.90;;;;;;6337745;22;20023;-88
2023/09/17 23:47:03;;;;;;;32.90;28.17;;;19.80;99.90;;;;;;6338406;22;20196;-87
2023/09/17 23:49:32;;;;;;;35.50;27.77;;;19.20;99.90;;;;;;6355265;22;20003;-88
2023/09/17 23:52:14;;;;;;;33.47;27.30;;;20.20;99.90;;;;;;6347267;22;20011;-87
2023/09/17 23:54:54;;;;;;;35.10;27.25;;;19.70;99.90;;;;;;6338122;22;20289;-88
2023/09/17 23:57:33;;;;;;;32.72;26.67;;;19.20;99.90;;;;;;6339691;22;20025;-87
